sensor_id;sensor_type;location;lat;lon;timestamp;P1;durP1;ratioP1;P2;durP2;ratioP2
7605;SDS011;3844;53.360;9.738;2022-08-30T00:01:50;3.17;;;1.20;;
7605;SDS011;3844;53.360;9.738;2022-08-30T00:03:51;3.85;;;1.20;;
7605;SDS011;3844;53.360;9.738;2022-08-30T00:05:53;3.00;;;1.10;;
7605;SDS011;3844;53.360;9.738;2022-08-30T00:07:54;3.42;;;1.20;;
7605;SDS011;3844;53.360;9.738;2022-08-30T00:09:56;3.50;;;1.40;;
7605;SDS011;3844;53.360;9.738;2022-08-30T00:11:57;3.05;;;1.10;;
7605;SDS011;3844;53.360;9.738;2022-08-30T00:13:57;3.17;;;1.30;;
7605;SDS011;3844;53.360;9.738;2022-08-30T00:15:58;3.08;;;1.10;;
7605;SDS011;3844;53.360;9.738;2022-08-30T00:17:59;2.88;;;1.10;;
7605;SDS011;3844;53.360;9.738;2022-08-30T00:20:00;4.10;;;1.30;;
7605;SDS011;3844;53.360;9.738;2022-08-30T00:22:01;3.35;;;1.20;;
7605;SDS011;3844;53.360;9.738;2022-08-30T00:24:02;3.45;;;1.20;;
7605;SDS011;3844;53.360;9.738;2022-08-30T00:26:04;3.35;;;1.30;;
7605;SDS011;3844;53.360;9.738;2022-08-30T00:28:05;3.22;;;1.20;;
7605;SDS011;3844;53.360;9.738;2022-08-30T00:30:07;2.80;;;1.27;;
7605;SDS011;3844;53.360;9.738;2022-08-30T00:32:09;2.67;;;1.13;;
7605;SDS011;3844;53.360;9.738;2022-08-30T00:34:10;5.22;;;1.40;;
7605;SDS011;3844;53.360;9.738;2022-08-30T00:36:10;2.95;;;1.10;;
7605;SDS011;3844;53.360;9.738;2022-08-30T00:38:12;3.53;;;1.40;;
7605;SDS011;3844;53.360;9.738;2022-08-30T00:40:13;3.30;;;1.10;;
7605;SDS011;3844;53.360;9.738;2022-08-30T00:42:19;3.65;;;1.17;;
7605;SDS011;3844;53.360;9.738;2022-08-30T00:44:20;3.13;;;1.10;;
7605;SDS011;3844;53.360;9.738;2022-08-30T00:46:21;2.92;;;1.10;;
7605;SDS011;3844;53.360;9.738;2022-08-30T00:48:22;3.10;;;1.35;;
7605;SDS011;3844;53.360;9.738;2022-08-30T00:50:24;2.20;;;1.00;;
7605;SDS011;3844;53.360;9.738;2022-08-30T00:52:28;3.58;;;1.17;;
7605;SDS011;3844;53.360;9.738;2022-08-30T00:54:31;2.85;;;1.17;;
7605;SDS011;3844;53.360;9.738;2022-08-30T00:56:33;4.22;;;1.33;;
7605;SDS011;3844;53.360;9.738;2022-08-30T00:58:35;3.17;;;1.23;;
7605;SDS011;3844;53.360;9.738;2022-08-30T01:00:39;3.78;;;1.30;;
7605;SDS011;3844;53.360;9.738;2022-08-30T01:02:40;2.90;;;1.20;;
7605;SDS011;3844;53.360;9.738;2022-08-30T01:04:41;3.53;;;1.40;;
7605;SDS011;3844;53.360;9.738;2022-08-30T01:06:43;2.92;;;1.23;;
7605;SDS011;3844;53.360;9.738;2022-08-30T01:08:44;3.30;;;1.10;;
7605;SDS011;3844;53.360;9.738;2022-08-30T01:10:46;3.65;;;1.20;;
7605;SDS011;3844;53.360;9.738;2022-08-30T01:12:48;3.42;;;1.33;;
7605;SDS011;3844;53.360;9.738;2022-08-30T01:14:49;3.65;;;1.33;;
7605;SDS011;3844;53.360;9.738;2022-08-30T01:16:50;3.75;;;1.10;;
7605;SDS011;3844;53.360;9.738;2022-08-30T01:18:51;3.42;;;1.02;;
7605;SDS011;3844;53.360;9.738;2022-08-30T01:21:01;3.05;;;1.20;;
7605;SDS011;3844;53.360;9.738;2022-08-30T01:23:27;2.92;;;1.17;;
7605;SDS011;3844;53.360;9.738;2022-08-30T01:25:30;2.88;;;1.17;;
7605;SDS011;3844;53.360;9.738;2022-08-30T01:27:35;3.08;;;1.00;;
7605;SDS011;3844;53.360;9.738;2022-08-30T01:29:40;3.65;;;1.30;;
7605;SDS011;3844;53.360;9.738;2022-08-30T01:31:44;3.13;;;1.15;;
7605;SDS011;3844;53.360;9.738;2022-08-30T01:33:45;2.78;;;1.08;;
7605;SDS011;3844;53.360;9.738;2022-08-30T01:35:53;3.40;;;1.10;;
7605;SDS011;3844;53.360;9.738;2022-08-30T01:37:57;4.40;;;1.20;;
7605;SDS011;3844;53.360;9.738;2022-08-30T01:39:58;4.38;;;1.30;;
7605;SDS011;3844;53.360;9.738;2022-08-30T01:41:59;4.13;;;1.30;;
7605;SDS011;3844;53.360;9.738;2022-08-30T01:44:05;3.42;;;1.10;;
7605;SDS011;3844;53.360;9.738;2022-08-30T01:46:08;3.33;;;1.20;;
7605;SDS011;3844;53.360;9.738;2022-08-30T01:48:10;3.45;;;1.23;;
7605;SDS011;3844;53.360;9.738;2022-08-30T01:50:11;3.72;;;1.30;;
7605;SDS011;3844;53.360;9.738;2022-08-30T01:52:13;3.35;;;1.35;;
7605;SDS011;3844;53.360;9.738;2022-08-30T01:54:15;4.18;;;1.50;;
7605;SDS011;3844;53.360;9.738;2022-08-30T01:56:16;2.90;;;1.40;;
7605;SDS011;3844;53.360;9.738;2022-08-30T01:58:17;4.13;;;1.45;;
7605;SDS011;3844;53.360;9.738;2022-08-30T02:00:18;5.15;;;1.40;;
7605;SDS011;3844;53.360;9.738;2022-08-30T02:02:19;4.32;;;1.58;;
7605;SDS011;3844;53.360;9.738;2022-08-30T02:04:22;4.78;;;1.52;;
7605;SDS011;3844;53.360;9.738;2022-08-30T02:06:23;5.30;;;1.98;;
7605;SDS011;3844;53.360;9.738;2022-08-30T02:08:23;5.03;;;1.60;;
7605;SDS011;3844;53.360;9.738;2022-08-30T02:10:24;3.67;;;1.40;;
7605;SDS011;3844;53.360;9.738;2022-08-30T02:12:25;4.28;;;1.58;;
7605;SDS011;3844;53.360;9.738;2022-08-30T02:14:27;4.03;;;1.65;;
7605;SDS011;3844;53.360;9.738;2022-08-30T02:16:28;4.93;;;1.80;;
7605;SDS011;3844;53.360;9.738;2022-08-30T02:18:28;3.90;;;1.50;;
7605;SDS011;3844;53.360;9.738;2022-08-30T02:20:29;4.70;;;1.58;;
7605;SDS011;3844;53.360;9.738;2022-08-30T02:22:30;4.22;;;1.60;;
7605;SDS011;3844;53.360;9.738;2022-08-30T02:24:31;3.30;;;1.50;;
7605;SDS011;3844;53.360;9.738;2022-08-30T02:26:32;5.35;;;1.42;;
7605;SDS011;3844;53.360;9.738;2022-08-30T02:28:35;3.10;;;1.33;;
7605;SDS011;3844;53.360;9.738;2022-08-30T02:30:36;4.00;;;1.50;;
7605;SDS011;3844;53.360;9.738;2022-08-30T02:32:36;3.10;;;1.40;;
7605;SDS011;3844;53.360;9.738;2022-08-30T02:34:37;3.47;;;1.40;;
7605;SDS011;3844;53.360;9.738;2022-08-30T02:36:38;3.90;;;1.35;;
7605;SDS011;3844;53.360;9.738;2022-08-30T02:38:42;3.90;;;1.50;;
7605;SDS011;3844;53.360;9.738;2022-08-30T02:40:43;3.05;;;1.40;;
7605;SDS011;3844;53.360;9.738;2022-08-30T02:42:44;3.38;;;1.38;;
7605;SDS011;3844;53.360;9.738;2022-08-30T02:44:44;4.18;;;1.60;;
7605;SDS011;3844;53.360;9.738;2022-08-30T02:46:45;3.53;;;1.40;;
7605;SDS011;3844;53.360;9.738;2022-08-30T02:48:47;3.67;;;1.40;;
7605;SDS011;3844;53.360;9.738;2022-08-30T02:50:48;3.33;;;1.50;;
7605;SDS011;3844;53.360;9.738;2022-08-30T02:52:51;3.58;;;1.30;;
7605;SDS011;3844;53.360;9.738;2022-08-30T02:54:51;3.95;;;1.40;;
7605;SDS011;3844;53.360;9.738;2022-08-30T02:56:54;3.75;;;1.50;;
7605;SDS011;3844;53.360;9.738;2022-08-30T02:58:55;3.50;;;1.30;;
7605;SDS011;3844;53.360;9.738;2022-08-30T03:00:56;4.30;;;1.50;;
7605;SDS011;3844;53.360;9.738;2022-08-30T03:02:57;4.80;;;1.60;;
7605;SDS011;3844;53.360;9.738;2022-08-30T03:04:57;2.80;;;1.27;;
7605;SDS011;3844;53.360;9.738;2022-08-30T03:06:58;2.90;;;1.35;;
7605;SDS011;3844;53.360;9.738;2022-08-30T03:08:59;3.17;;;1.30;;
7605;SDS011;3844;53.360;9.738;2022-08-30T03:11:00;2.95;;;1.48;;
7605;SDS011;3844;53.360;9.738;2022-08-30T03:13:01;4.05;;;1.30;;
7605;SDS011;3844;53.360;9.738;2022-08-30T03:15:03;3.05;;;1.20;;
7605;SDS011;3844;53.360;9.738;2022-08-30T03:17:06;3.63;;;1.35;;
7605;SDS011;3844;53.360;9.738;2022-08-30T03:19:07;4.57;;;1.40;;
7605;SDS011;3844;53.360;9.738;2022-08-30T03:21:12;4.25;;;1.30;;
7605;SDS011;3844;53.360;9.738;2022-08-30T03:23:14;3.20;;;1.40;;
7605;SDS011;3844;53.360;9.738;2022-08-30T03:25:16;3.75;;;1.30;;
7605;SDS011;3844;53.360;9.738;2022-08-30T03:27:17;3.63;;;1.33;;
7605;SDS011;3844;53.360;9.738;2022-08-30T03:29:17;3.67;;;1.10;;
7605;SDS011;3844;53.360;9.738;2022-08-30T03:31:18;5.95;;;1.40;;
7605;SDS011;3844;53.360;9.738;2022-08-30T03:33:19;4.20;;;1.33;;
7605;SDS011;3844;53.360;9.738;2022-08-30T03:35:20;3.88;;;1.40;;
7605;SDS011;3844;53.360;9.738;2022-08-30T03:37:20;3.47;;;1.27;;
7605;SDS011;3844;53.360;9.738;2022-08-30T03:39:21;3.42;;;1.30;;
7605;SDS011;3844;53.360;9.738;2022-08-30T03:41:23;3.10;;;1.20;;
7605;SDS011;3844;53.360;9.738;2022-08-30T03:43:24;3.10;;;1.20;;
7605;SDS011;3844;53.360;9.738;2022-08-30T03:45:24;3.00;;;1.20;;
7605;SDS011;3844;53.360;9.738;2022-08-30T03:47:25;3.25;;;1.20;;
7605;SDS011;3844;53.360;9.738;2022-08-30T03:49:27;3.88;;;1.20;;
7605;SDS011;3844;53.360;9.738;2022-08-30T03:51:27;2.60;;;1.10;;
7605;SDS011;3844;53.360;9.738;2022-08-30T03:53:28;5.00;;;1.45;;
7605;SDS011;3844;53.360;9.738;2022-08-30T03:55:29;3.10;;;1.25;;
7605;SDS011;3844;53.360;9.738;2022-08-30T03:57:29;3.45;;;1.20;;
7605;SDS011;3844;53.360;9.738;2022-08-30T03:59:31;3.13;;;1.27;;
7605;SDS011;3844;53.360;9.738;2022-08-30T04:01:32;4.32;;;1.35;;
7605;SDS011;3844;53.360;9.738;2022-08-30T04:03:32;3.15;;;1.27;;
7605;SDS011;3844;53.360;9.738;2022-08-30T04:05:33;2.63;;;1.20;;
7605;SDS011;3844;53.360;9.738;2022-08-30T04:07:34;3.78;;;1.25;;
7605;SDS011;3844;53.360;9.738;2022-08-30T04:09:35;4.88;;;1.40;;
7605;SDS011;3844;53.360;9.738;2022-08-30T04:11:36;3.25;;;1.30;;
7605;SDS011;3844;53.360;9.738;2022-08-30T04:13:37;3.88;;;1.08;;
7605;SDS011;3844;53.360;9.738;2022-08-30T04:15:37;2.97;;;1.20;;
7605;SDS011;3844;53.360;9.738;2022-08-30T04:17:38;3.67;;;1.20;;
7605;SDS011;3844;53.360;9.738;2022-08-30T04:19:39;3.72;;;1.30;;
7605;SDS011;3844;53.360;9.738;2022-08-30T04:21:39;2.63;;;1.17;;
7605;SDS011;3844;53.360;9.738;2022-08-30T04:23:41;3.22;;;1.25;;
7605;SDS011;3844;53.360;9.738;2022-08-30T04:25:42;4.28;;;1.25;;
7605;SDS011;3844;53.360;9.738;2022-08-30T04:27:46;3.08;;;1.20;;
7605;SDS011;3844;53.360;9.738;2022-08-30T04:29:46;3.58;;;1.25;;
7605;SDS011;3844;53.360;9.738;2022-08-30T04:31:47;3.35;;;1.27;;
7605;SDS011;3844;53.360;9.738;2022-08-30T04:33:48;4.38;;;1.30;;
7605;SDS011;3844;53.360;9.738;2022-08-30T04:35:48;2.67;;;1.10;;
7605;SDS011;3844;53.360;9.738;2022-08-30T04:37:49;2.53;;;1.10;;
7605;SDS011;3844;53.360;9.738;2022-08-30T04:39:53;2.95;;;1.20;;
7605;SDS011;3844;53.360;9.738;2022-08-30T04:41:56;3.42;;;1.20;;
7605;SDS011;3844;53.360;9.738;2022-08-30T04:43:57;4.88;;;1.20;;
7605;SDS011;3844;53.360;9.738;2022-08-30T04:46:04;4.20;;;1.20;;
7605;SDS011;3844;53.360;9.738;2022-08-30T04:48:06;5.22;;;1.20;;
7605;SDS011;3844;53.360;9.738;2022-08-30T04:50:09;3.80;;;1.20;;
7605;SDS011;3844;53.360;9.738;2022-08-30T04:52:12;3.38;;;1.17;;
7605;SDS011;3844;53.360;9.738;2022-08-30T04:54:13;2.67;;;1.10;;
7605;SDS011;3844;53.360;9.738;2022-08-30T04:56:15;3.22;;;1.27;;
7605;SDS011;3844;53.360;9.738;2022-08-30T04:58:17;3.00;;;1.13;;
7605;SDS011;3844;53.360;9.738;2022-08-30T05:00:18;2.88;;;1.20;;
7605;SDS011;3844;53.360;9.738;2022-08-30T05:02:19;3.13;;;1.20;;
7605;SDS011;3844;53.360;9.738;2022-08-30T05:04:20;3.30;;;1.20;;
7605;SDS011;3844;53.360;9.738;2022-08-30T05:06:21;4.35;;;1.23;;
7605;SDS011;3844;53.360;9.738;2022-08-30T05:08:23;3.10;;;1.30;;
7605;SDS011;3844;53.360;9.738;2022-08-30T05:10:24;3.20;;;1.15;;
7605;SDS011;3844;53.360;9.738;2022-08-30T05:12:26;5.65;;;1.10;;
7605;SDS011;3844;53.360;9.738;2022-08-30T05:14:27;3.17;;;1.23;;
7605;SDS011;3844;53.360;9.738;2022-08-30T05:16:27;4.60;;;1.35;;
7605;SDS011;3844;53.360;9.738;2022-08-30T05:18:28;3.85;;;1.23;;
7605;SDS011;3844;53.360;9.738;2022-08-30T05:20:29;3.72;;;1.42;;
7605;SDS011;3844;53.360;9.738;2022-08-30T05:22:30;3.70;;;1.23;;
7605;SDS011;3844;53.360;9.738;2022-08-30T05:24:30;5.10;;;1.50;;
7605;SDS011;3844;53.360;9.738;2022-08-30T05:26:32;3.60;;;1.52;;
7605;SDS011;3844;53.360;9.738;2022-08-30T05:28:34;3.63;;;1.42;;
7605;SDS011;3844;53.360;9.738;2022-08-30T05:30:35;4.95;;;1.40;;
7605;SDS011;3844;53.360;9.738;2022-08-30T05:32:37;4.35;;;1.33;;
7605;SDS011;3844;53.360;9.738;2022-08-30T05:34:37;5.20;;;1.80;;
7605;SDS011;3844;53.360;9.738;2022-08-30T05:36:38;5.07;;;1.40;;
7605;SDS011;3844;53.360;9.738;2022-08-30T05:38:39;3.55;;;1.30;;
7605;SDS011;3844;53.360;9.738;2022-08-30T05:40:41;4.85;;;1.65;;
7605;SDS011;3844;53.360;9.738;2022-08-30T05:42:43;3.30;;;1.40;;
7605;SDS011;3844;53.360;9.738;2022-08-30T05:44:44;3.67;;;1.23;;
7605;SDS011;3844;53.360;9.738;2022-08-30T05:46:46;5.25;;;1.80;;
7605;SDS011;3844;53.360;9.738;2022-08-30T05:48:48;3.90;;;1.60;;
7605;SDS011;3844;53.360;9.738;2022-08-30T05:50:49;4.43;;;1.58;;
7605;SDS011;3844;53.360;9.738;2022-08-30T05:52:50;4.53;;;1.60;;
7605;SDS011;3844;53.360;9.738;2022-08-30T05:54:52;5.93;;;1.80;;
7605;SDS011;3844;53.360;9.738;2022-08-30T05:56:58;5.80;;;1.80;;
7605;SDS011;3844;53.360;9.738;2022-08-30T05:59:00;4.75;;;1.88;;
7605;SDS011;3844;53.360;9.738;2022-08-30T06:01:01;5.18;;;1.60;;
7605;SDS011;3844;53.360;9.738;2022-08-30T06:03:03;5.50;;;1.80;;
7605;SDS011;3844;53.360;9.738;2022-08-30T06:05:04;4.60;;;1.83;;
7605;SDS011;3844;53.360;9.738;2022-08-30T06:07:05;4.95;;;1.83;;
7605;SDS011;3844;53.360;9.738;2022-08-30T06:09:06;4.00;;;1.70;;
7605;SDS011;3844;53.360;9.738;2022-08-30T06:11:08;4.05;;;1.60;;
7605;SDS011;3844;53.360;9.738;2022-08-30T06:13:09;4.03;;;1.50;;
7605;SDS011;3844;53.360;9.738;2022-08-30T06:15:10;5.22;;;1.63;;
7605;SDS011;3844;53.360;9.738;2022-08-30T06:17:11;4.25;;;1.80;;
7605;SDS011;3844;53.360;9.738;2022-08-30T06:19:12;3.92;;;1.67;;
7605;SDS011;3844;53.360;9.738;2022-08-30T06:21:17;4.28;;;1.90;;
7605;SDS011;3844;53.360;9.738;2022-08-30T06:23:20;4.50;;;1.75;;
7605;SDS011;3844;53.360;9.738;2022-08-30T06:25:21;3.88;;;1.58;;
7605;SDS011;3844;53.360;9.738;2022-08-30T06:27:23;5.20;;;1.60;;
7605;SDS011;3844;53.360;9.738;2022-08-30T06:29:24;4.72;;;1.50;;
7605;SDS011;3844;53.360;9.738;2022-08-30T06:31:25;3.72;;;1.60;;
7605;SDS011;3844;53.360;9.738;2022-08-30T06:33:26;4.28;;;1.60;;
7605;SDS011;3844;53.360;9.738;2022-08-30T06:35:26;3.90;;;1.60;;
7605;SDS011;3844;53.360;9.738;2022-08-30T06:37:27;5.25;;;1.63;;
7605;SDS011;3844;53.360;9.738;2022-08-30T06:39:28;3.55;;;1.40;;
7605;SDS011;3844;53.360;9.738;2022-08-30T06:41:30;3.28;;;1.48;;
7605;SDS011;3844;53.360;9.738;2022-08-30T06:43:32;5.68;;;1.50;;
7605;SDS011;3844;53.360;9.738;2022-08-30T06:45:33;4.40;;;1.85;;
7605;SDS011;3844;53.360;9.738;2022-08-30T06:47:34;4.85;;;1.70;;
7605;SDS011;3844;53.360;9.738;2022-08-30T06:49:35;5.05;;;1.60;;
7605;SDS011;3844;53.360;9.738;2022-08-30T06:51:36;5.47;;;1.60;;
7605;SDS011;3844;53.360;9.738;2022-08-30T06:53:38;4.05;;;1.65;;
7605;SDS011;3844;53.360;9.738;2022-08-30T06:55:39;4.25;;;1.67;;
7605;SDS011;3844;53.360;9.738;2022-08-30T06:57:39;6.00;;;1.70;;
7605;SDS011;3844;53.360;9.738;2022-08-30T06:59:40;4.65;;;1.75;;
7605;SDS011;3844;53.360;9.738;2022-08-30T07:01:41;4.22;;;1.50;;
7605;SDS011;3844;53.360;9.738;2022-08-30T07:03:41;5.78;;;1.70;;
7605;SDS011;3844;53.360;9.738;2022-08-30T07:05:42;4.40;;;1.42;;
7605;SDS011;3844;53.360;9.738;2022-08-30T07:07:43;3.55;;;1.20;;
7605;SDS011;3844;53.360;9.738;2022-08-30T07:09:43;5.07;;;1.60;;
7605;SDS011;3844;53.360;9.738;2022-08-30T07:11:44;3.53;;;1.50;;
7605;SDS011;3844;53.360;9.738;2022-08-30T07:13:45;4.47;;;1.42;;
7605;SDS011;3844;53.360;9.738;2022-08-30T07:15:46;4.63;;;1.40;;
7605;SDS011;3844;53.360;9.738;2022-08-30T07:17:47;4.95;;;1.50;;
7605;SDS011;3844;53.360;9.738;2022-08-30T07:20:07;3.50;;;1.40;;
7605;SDS011;3844;53.360;9.738;2022-08-30T07:22:09;2.67;;;0.93;;
7605;SDS011;3844;53.360;9.738;2022-08-30T07:24:10;3.72;;;1.33;;
7605;SDS011;3844;53.360;9.738;2022-08-30T07:26:12;3.08;;;1.33;;
7605;SDS011;3844;53.360;9.738;2022-08-30T07:28:15;3.60;;;1.30;;
7605;SDS011;3844;53.360;9.738;2022-08-30T07:30:16;4.78;;;1.60;;
7605;SDS011;3844;53.360;9.738;2022-08-30T07:32:18;3.38;;;1.25;;
7605;SDS011;3844;53.360;9.738;2022-08-30T07:34:18;5.03;;;1.23;;
7605;SDS011;3844;53.360;9.738;2022-08-30T07:36:20;4.30;;;1.40;;
7605;SDS011;3844;53.360;9.738;2022-08-30T07:38:22;3.53;;;1.13;;
7605;SDS011;3844;53.360;9.738;2022-08-30T07:40:23;3.45;;;1.20;;
7605;SDS011;3844;53.360;9.738;2022-08-30T07:42:24;4.60;;;1.40;;
7605;SDS011;3844;53.360;9.738;2022-08-30T07:44:24;3.42;;;1.50;;
7605;SDS011;3844;53.360;9.738;2022-08-30T07:46:25;3.70;;;1.40;;
7605;SDS011;3844;53.360;9.738;2022-08-30T07:48:27;4.55;;;1.42;;
7605;SDS011;3844;53.360;9.738;2022-08-30T07:50:27;3.90;;;1.60;;
7605;SDS011;3844;53.360;9.738;2022-08-30T07:52:29;5.25;;;1.50;;
7605;SDS011;3844;53.360;9.738;2022-08-30T07:54:30;6.82;;;1.58;;
7605;SDS011;3844;53.360;9.738;2022-08-30T07:56:30;4.40;;;1.35;;
7605;SDS011;3844;53.360;9.738;2022-08-30T07:58:31;3.85;;;1.50;;
7605;SDS011;3844;53.360;9.738;2022-08-30T08:00:32;3.10;;;1.40;;
7605;SDS011;3844;53.360;9.738;2022-08-30T08:02:33;4.45;;;1.73;;
7605;SDS011;3844;53.360;9.738;2022-08-30T08:04:34;3.60;;;1.52;;
7605;SDS011;3844;53.360;9.738;2022-08-30T08:06:36;4.47;;;1.50;;
7605;SDS011;3844;53.360;9.738;2022-08-30T08:08:38;4.38;;;1.50;;
7605;SDS011;3844;53.360;9.738;2022-08-30T08:10:40;3.75;;;1.50;;
7605;SDS011;3844;53.360;9.738;2022-08-30T08:12:42;2.83;;;1.35;;
7605;SDS011;3844;53.360;9.738;2022-08-30T08:14:42;3.17;;;1.30;;
7605;SDS011;3844;53.360;9.738;2022-08-30T08:16:43;2.35;;;1.05;;
7605;SDS011;3844;53.360;9.738;2022-08-30T08:18:45;3.50;;;1.30;;
7605;SDS011;3844;53.360;9.738;2022-08-30T08:20:46;4.38;;;1.27;;
7605;SDS011;3844;53.360;9.738;2022-08-30T08:22:47;3.42;;;1.10;;
7605;SDS011;3844;53.360;9.738;2022-08-30T08:24:48;3.15;;;1.20;;
7605;SDS011;3844;53.360;9.738;2022-08-30T08:26:49;4.47;;;1.50;;
7605;SDS011;3844;53.360;9.738;2022-08-30T08:28:49;4.60;;;1.65;;
7605;SDS011;3844;53.360;9.738;2022-08-30T08:30:50;3.45;;;1.30;;
7605;SDS011;3844;53.360;9.738;2022-08-30T08:32:51;3.80;;;1.30;;
7605;SDS011;3844;53.360;9.738;2022-08-30T08:34:52;3.92;;;1.38;;
7605;SDS011;3844;53.360;9.738;2022-08-30T08:36:53;3.92;;;1.30;;
7605;SDS011;3844;53.360;9.738;2022-08-30T08:38:53;4.07;;;1.23;;
7605;SDS011;3844;53.360;9.738;2022-08-30T08:40:58;3.95;;;1.25;;
7605;SDS011;3844;53.360;9.738;2022-08-30T08:43:14;4.30;;;1.40;;
7605;SDS011;3844;53.360;9.738;2022-08-30T08:45:18;4.15;;;1.30;;
7605;SDS011;3844;53.360;9.738;2022-08-30T08:47:57;4.47;;;1.60;;
7605;SDS011;3844;53.360;9.738;2022-08-30T08:50:04;5.57;;;1.52;;
7605;SDS011;3844;53.360;9.738;2022-08-30T08:52:23;4.70;;;1.27;;
7605;SDS011;3844;53.360;9.738;2022-08-30T08:56:57;5.28;;;1.70;;
7605;SDS011;3844;53.360;9.738;2022-08-30T08:58:59;3.42;;;1.48;;
7605;SDS011;3844;53.360;9.738;2022-08-30T09:01:00;5.00;;;1.60;;
7605;SDS011;3844;53.360;9.738;2022-08-30T09:03:01;4.53;;;1.50;;
7605;SDS011;3844;53.360;9.738;2022-08-30T09:05:03;6.40;;;1.70;;
7605;SDS011;3844;53.360;9.738;2022-08-30T09:07:22;5.43;;;1.50;;
7605;SDS011;3844;53.360;9.738;2022-08-30T09:09:27;4.25;;;1.40;;
7605;SDS011;3844;53.360;9.738;2022-08-30T09:13:31;5.05;;;1.42;;
7605;SDS011;3844;53.360;9.738;2022-08-30T09:15:32;4.15;;;1.60;;
7605;SDS011;3844;53.360;9.738;2022-08-30T09:17:47;3.42;;;1.50;;
7605;SDS011;3844;53.360;9.738;2022-08-30T09:21:56;4.07;;;1.40;;
7605;SDS011;3844;53.360;9.738;2022-08-30T09:24:00;5.25;;;1.50;;
7605;SDS011;3844;53.360;9.738;2022-08-30T09:26:10;4.05;;;1.35;;
7605;SDS011;3844;53.360;9.738;2022-08-30T09:28:11;4.63;;;1.50;;
7605;SDS011;3844;53.360;9.738;2022-08-30T09:30:22;4.55;;;1.27;;
7605;SDS011;3844;53.360;9.738;2022-08-30T09:32:28;5.95;;;1.40;;
7605;SDS011;3844;53.360;9.738;2022-08-30T09:34:29;5.00;;;1.30;;
7605;SDS011;3844;53.360;9.738;2022-08-30T09:36:33;3.15;;;0.98;;
7605;SDS011;3844;53.360;9.738;2022-08-30T09:38:40;4.95;;;1.48;;
7605;SDS011;3844;53.360;9.738;2022-08-30T09:40:45;4.97;;;1.20;;
7605;SDS011;3844;53.360;9.738;2022-08-30T09:45:18;4.18;;;1.00;;
7605;SDS011;3844;53.360;9.738;2022-08-30T09:47:28;2.80;;;1.08;;
7605;SDS011;3844;53.360;9.738;2022-08-30T09:51:54;4.00;;;1.08;;
7605;SDS011;3844;53.360;9.738;2022-08-30T09:54:25;2.63;;;0.90;;
7605;SDS011;3844;53.360;9.738;2022-08-30T10:01:21;2.72;;;0.85;;
7605;SDS011;3844;53.360;9.738;2022-08-30T10:03:33;3.05;;;0.90;;
7605;SDS011;3844;53.360;9.738;2022-08-30T10:21:55;2.35;;;0.60;;
7605;SDS011;3844;53.360;9.738;2022-08-30T10:24:07;2.03;;;0.50;;
7605;SDS011;3844;53.360;9.738;2022-08-30T10:26:21;2.63;;;0.55;;
7605;SDS011;3844;53.360;9.738;2022-08-30T10:28:41;1.45;;;0.50;;
7605;SDS011;3844;53.360;9.738;2022-08-30T10:30:51;2.17;;;0.55;;
7605;SDS011;3844;53.360;9.738;2022-08-30T10:35:10;2.20;;;0.50;;
7605;SDS011;3844;53.360;9.738;2022-08-30T10:37:19;0.93;;;0.40;;
7605;SDS011;3844;53.360;9.738;2022-08-30T10:39:24;1.58;;;0.50;;
7605;SDS011;3844;53.360;9.738;2022-08-30T10:41:34;3.30;;;0.60;;
7605;SDS011;3844;53.360;9.738;2022-08-30T10:44:40;2.40;;;0.52;;
7605;SDS011;3844;53.360;9.738;2022-08-30T10:48:40;2.72;;;0.50;;
7605;SDS011;3844;53.360;9.738;2022-08-30T10:50:45;1.60;;;0.40;;
7605;SDS011;3844;53.360;9.738;2022-08-30T10:52:51;2.30;;;0.57;;
7605;SDS011;3844;53.360;9.738;2022-08-30T10:55:08;2.85;;;0.65;;
7605;SDS011;3844;53.360;9.738;2022-08-30T10:57:13;1.50;;;0.47;;
7605;SDS011;3844;53.360;9.738;2022-08-30T10:59:17;2.13;;;0.60;;
7605;SDS011;3844;53.360;9.738;2022-08-30T11:13:17;1.60;;;0.52;;
7605;SDS011;3844;53.360;9.738;2022-08-30T11:15:23;1.48;;;0.60;;
7605;SDS011;3844;53.360;9.738;2022-08-30T11:17:39;2.50;;;0.55;;
7605;SDS011;3844;53.360;9.738;2022-08-30T11:19:52;3.00;;;0.60;;
7605;SDS011;3844;53.360;9.738;2022-08-30T11:22:11;1.90;;;0.50;;
7605;SDS011;3844;53.360;9.738;2022-08-30T11:24:57;2.20;;;0.63;;
7605;SDS011;3844;53.360;9.738;2022-08-30T11:27:05;1.88;;;0.47;;
7605;SDS011;3844;53.360;9.738;2022-08-30T11:29:06;1.80;;;0.47;;
7605;SDS011;3844;53.360;9.738;2022-08-30T11:31:08;1.40;;;0.50;;
7605;SDS011;3844;53.360;9.738;2022-08-30T11:33:37;1.90;;;0.52;;
7605;SDS011;3844;53.360;9.738;2022-08-30T11:37:43;2.67;;;0.53;;
7605;SDS011;3844;53.360;9.738;2022-08-30T11:41:48;3.10;;;0.55;;
7605;SDS011;3844;53.360;9.738;2022-08-30T11:44:14;2.08;;;0.65;;
7605;SDS011;3844;53.360;9.738;2022-08-30T11:48:41;2.33;;;0.60;;
7605;SDS011;3844;53.360;9.738;2022-08-30T11:55:38;2.15;;;0.60;;
7605;SDS011;3844;53.360;9.738;2022-08-30T12:00:32;1.90;;;0.70;;
7605;SDS011;3844;53.360;9.738;2022-08-30T12:02:42;1.98;;;0.70;;
7605;SDS011;3844;53.360;9.738;2022-08-30T12:04:47;1.52;;;0.52;;
7605;SDS011;3844;53.360;9.738;2022-08-30T12:06:52;1.70;;;0.70;;
7605;SDS011;3844;53.360;9.738;2022-08-30T12:09:03;2.60;;;0.60;;
7605;SDS011;3844;53.360;9.738;2022-08-30T12:11:51;2.35;;;0.75;;
7605;SDS011;3844;53.360;9.738;2022-08-30T12:18:14;3.65;;;0.55;;
7605;SDS011;3844;53.360;9.738;2022-08-30T12:20:39;1.13;;;0.50;;
7605;SDS011;3844;53.360;9.738;2022-08-30T12:22:46;3.05;;;0.60;;
7605;SDS011;3844;53.360;9.738;2022-08-30T12:24:47;1.25;;;0.50;;
7605;SDS011;3844;53.360;9.738;2022-08-30T12:26:51;2.45;;;0.60;;
7605;SDS011;3844;53.360;9.738;2022-08-30T12:29:05;2.15;;;0.60;;
7605;SDS011;3844;53.360;9.738;2022-08-30T12:31:22;2.03;;;0.60;;
7605;SDS011;3844;53.360;9.738;2022-08-30T12:33:26;2.00;;;0.70;;
7605;SDS011;3844;53.360;9.738;2022-08-30T12:35:31;1.95;;;0.60;;
7605;SDS011;3844;53.360;9.738;2022-08-30T12:37:34;2.03;;;0.70;;
7605;SDS011;3844;53.360;9.738;2022-08-30T12:39:38;2.03;;;0.50;;
7605;SDS011;3844;53.360;9.738;2022-08-30T12:41:43;1.60;;;0.60;;
7605;SDS011;3844;53.360;9.738;2022-08-30T12:43:48;3.47;;;0.75;;
7605;SDS011;3844;53.360;9.738;2022-08-30T12:45:51;2.13;;;0.70;;
7605;SDS011;3844;53.360;9.738;2022-08-30T12:47:56;1.77;;;0.60;;
7605;SDS011;3844;53.360;9.738;2022-08-30T12:50:04;2.10;;;0.57;;
7605;SDS011;3844;53.360;9.738;2022-08-30T12:52:25;2.83;;;0.70;;
7605;SDS011;3844;53.360;9.738;2022-08-30T12:54:34;2.70;;;0.70;;
7605;SDS011;3844;53.360;9.738;2022-08-30T13:00:48;1.92;;;0.60;;
7605;SDS011;3844;53.360;9.738;2022-08-30T13:02:50;2.22;;;0.70;;
7605;SDS011;3844;53.360;9.738;2022-08-30T13:04:53;2.35;;;0.70;;
7605;SDS011;3844;53.360;9.738;2022-08-30T13:06:58;2.50;;;0.80;;
7605;SDS011;3844;53.360;9.738;2022-08-30T13:09:01;1.92;;;0.70;;
7605;SDS011;3844;53.360;9.738;2022-08-30T13:13:10;1.48;;;0.50;;
7605;SDS011;3844;53.360;9.738;2022-08-30T13:15:18;1.50;;;0.65;;
7605;SDS011;3844;53.360;9.738;2022-08-30T13:17:26;3.53;;;0.80;;
7605;SDS011;3844;53.360;9.738;2022-08-30T13:19:35;2.17;;;0.65;;
7605;SDS011;3844;53.360;9.738;2022-08-30T13:21:50;1.95;;;0.60;;
7605;SDS011;3844;53.360;9.738;2022-08-30T13:24:10;2.72;;;0.70;;
7605;SDS011;3844;53.360;9.738;2022-08-30T13:26:10;3.45;;;0.90;;
7605;SDS011;3844;53.360;9.738;2022-08-30T13:28:11;3.70;;;0.80;;
7605;SDS011;3844;53.360;9.738;2022-08-30T13:30:13;2.72;;;0.90;;
7605;SDS011;3844;53.360;9.738;2022-08-30T13:32:17;2.88;;;0.82;;
7605;SDS011;3844;53.360;9.738;2022-08-30T13:34:19;2.95;;;0.80;;
7605;SDS011;3844;53.360;9.738;2022-08-30T13:36:24;4.93;;;0.80;;
7605;SDS011;3844;53.360;9.738;2022-08-30T13:38:27;2.40;;;0.80;;
7605;SDS011;3844;53.360;9.738;2022-08-30T13:40:28;4.40;;;1.00;;
7605;SDS011;3844;53.360;9.738;2022-08-30T13:42:29;3.85;;;0.85;;
7605;SDS011;3844;53.360;9.738;2022-08-30T13:44:30;2.75;;;1.00;;
7605;SDS011;3844;53.360;9.738;2022-08-30T13:46:30;3.75;;;1.00;;
7605;SDS011;3844;53.360;9.738;2022-08-30T13:48:31;2.47;;;0.90;;
7605;SDS011;3844;53.360;9.738;2022-08-30T13:50:33;2.90;;;0.90;;
7605;SDS011;3844;53.360;9.738;2022-08-30T13:52:33;2.72;;;0.88;;
7605;SDS011;3844;53.360;9.738;2022-08-30T13:54:34;2.58;;;0.82;;
7605;SDS011;3844;53.360;9.738;2022-08-30T13:56:35;5.65;;;0.90;;
7605;SDS011;3844;53.360;9.738;2022-08-30T13:58:36;3.05;;;0.88;;
7605;SDS011;3844;53.360;9.738;2022-08-30T14:00:37;3.00;;;0.90;;
7605;SDS011;3844;53.360;9.738;2022-08-30T14:02:38;2.65;;;0.93;;